createdAt,value
2018-12-29T00:01:44.798Z,84.31
2018-12-29T00:04:14.476Z,84.26
2018-12-29T00:06:44.172Z,84.28
2018-12-29T00:09:13.846Z,84.19
2018-12-29T00:11:43.527Z,84.27
2018-12-29T00:14:13.213Z,84.09
2018-12-29T00:16:42.901Z,84.14
2018-12-29T00:19:12.577Z,84.15
2018-12-29T00:21:42.268Z,84.18
2018-12-29T00:24:11.952Z,84.16
2018-12-29T00:26:41.631Z,84.17
2018-12-29T00:29:11.306Z,84.20
2018-12-29T00:31:40.992Z,84.13
2018-12-29T00:34:10.672Z,84.11
2018-12-29T00:36:40.593Z,84.14
2018-12-29T00:39:10.287Z,84.19
2018-12-29T00:41:39.969Z,84.31
2018-12-29T00:44:09.647Z,84.27
2018-12-29T00:46:39.347Z,84.21
2018-12-29T00:49:09.044Z,84.29
2018-12-29T00:51:38.716Z,84.43
2018-12-29T00:54:08.630Z,84.44
2018-12-29T00:56:38.320Z,84.36
2018-12-29T00:59:08.015Z,84.49
2018-12-29T01:01:37.719Z,84.58
2018-12-29T01:04:07.653Z,84.57
2018-12-29T01:06:37.573Z,84.38
2018-12-29T01:09:07.620Z,84.36
2018-12-29T01:11:37.308Z,84.40
2018-12-29T01:14:07.329Z,84.36
2018-12-29T01:16:37.105Z,84.45
2018-12-29T01:19:06.786Z,84.43
2018-12-29T01:21:36.473Z,84.36
2018-12-29T01:24:06.152Z,84.45
2018-12-29T01:26:35.839Z,84.39
2018-12-29T01:29:05.530Z,84.40
2018-12-29T01:31:35.208Z,84.42
2018-12-29T01:34:05.330Z,84.35
2018-12-29T01:36:35.091Z,84.34
2018-12-29T01:39:06.617Z,84.32
2018-12-29T01:41:36.289Z,84.30
2018-12-29T01:44:05.977Z,84.25
2018-12-29T01:46:35.664Z,84.35
2018-12-29T01:49:05.614Z,84.27
2018-12-29T01:51:35.575Z,84.22
2018-12-29T01:54:05.802Z,84.27
2018-12-29T01:56:35.486Z,84.38
2018-12-29T01:59:06.331Z,84.32
2018-12-29T02:01:36.141Z,84.29
2018-12-29T02:04:05.825Z,84.21
2018-12-29T02:06:35.514Z,84.19
2018-12-29T02:09:06.779Z,84.24
2018-12-29T02:11:36.466Z,84.27
2018-12-29T02:14:06.156Z,84.25
2018-12-29T02:16:35.848Z,84.19
2018-12-29T02:19:05.569Z,84.14
2018-12-29T02:21:35.274Z,84.17
2018-12-29T02:24:05.458Z,84.27
2018-12-29T02:26:35.132Z,84.34
2018-12-29T02:29:05.626Z,84.42
2018-12-29T02:31:36.387Z,84.37
2018-12-29T02:34:06.160Z,84.34
2018-12-29T02:36:36.105Z,84.23
2018-12-29T02:39:07.657Z,84.33
2018-12-29T02:41:37.356Z,84.32
2018-12-29T02:44:07.043Z,84.36
2018-12-29T02:46:36.752Z,84.44
2018-12-29T02:49:06.671Z,84.55
2018-12-29T02:51:36.606Z,84.51
2018-12-29T02:54:06.303Z,84.53
2018-12-29T02:56:35.972Z,84.58
2018-12-29T02:59:05.666Z,84.62
2018-12-29T03:01:35.348Z,84.73
2018-12-29T03:04:05.469Z,84.85
2018-12-29T03:06:35.146Z,84.92
2018-12-29T03:09:06.326Z,85.06
2018-12-29T03:11:36.018Z,85.14
2018-12-29T03:14:05.959Z,85.18
2018-12-29T03:16:35.663Z,85.15
2018-12-29T03:19:05.534Z,85.12
2018-12-29T03:21:35.250Z,85.08
2018-12-29T03:24:05.480Z,85.11
2018-12-29T03:26:35.900Z,85.14
2018-12-29T03:29:05.593Z,85.22
2018-12-29T03:31:35.282Z,85.33
2018-12-29T03:34:05.082Z,85.37
2018-12-29T03:36:34.785Z,85.35
2018-12-29T03:39:07.250Z,85.35
2018-12-29T03:41:36.973Z,85.44
2018-12-29T03:44:06.657Z,85.45
2018-12-29T03:46:36.330Z,85.49
2018-12-29T03:49:06.012Z,85.57
2018-12-29T03:51:35.970Z,85.60
2018-12-29T03:54:05.670Z,85.60
2018-12-29T03:56:35.363Z,85.68
2018-12-29T03:59:05.899Z,85.73
2018-12-29T04:01:35.618Z,85.69
2018-12-29T04:04:05.426Z,85.76
2018-12-29T04:06:35.117Z,85.86
2018-12-29T04:09:32.123Z,85.84
2018-12-29T04:12:05.004Z,85.86
2018-12-29T04:14:35.375Z,85.73
2018-12-29T04:17:05.271Z,85.72
2018-12-29T04:19:35.041Z,85.72
2018-12-29T04:22:05.471Z,85.62
2018-12-29T04:24:35.169Z,85.72
2018-12-29T04:27:05.464Z,85.76
2018-12-29T04:29:35.152Z,85.74
2018-12-29T04:32:05.468Z,85.81
2018-12-29T04:34:35.375Z,85.85
2018-12-29T04:37:05.570Z,85.93
2018-12-29T04:39:35.281Z,85.93
2018-12-29T04:42:05.309Z,85.98
2018-12-29T04:44:35.025Z,86.08
2018-12-29T04:47:05.326Z,86.04
2018-12-29T04:49:35.021Z,86.08
2018-12-29T04:52:05.299Z,86.16
2018-12-29T04:54:34.990Z,86.13
2018-12-29T04:57:05.985Z,86.00
2018-12-29T04:59:36.494Z,86.03
2018-12-29T05:02:06.224Z,86.08
2018-12-29T05:04:35.932Z,86.06
2018-12-29T05:07:05.630Z,86.10
2018-12-29T05:09:35.332Z,86.11
2018-12-29T05:12:05.658Z,86.21
2018-12-29T05:14:35.370Z,86.14
2018-12-29T05:17:05.165Z,86.11
2018-12-29T05:19:34.909Z,86.08
2018-12-29T05:22:05.410Z,86.13
2018-12-29T05:24:35.112Z,86.23
2018-12-29T05:27:05.870Z,86.21
2018-12-29T05:29:35.793Z,86.27
2018-12-29T05:32:05.708Z,86.22
2018-12-29T05:34:35.403Z,86.27
2018-12-29T05:37:06.035Z,86.23
2018-12-29T05:39:35.752Z,86.37
2018-12-29T05:42:05.437Z,86.52
2018-12-29T05:44:35.478Z,86.66
2018-12-29T05:47:05.578Z,86.61
2018-12-29T05:49:35.407Z,86.61
2018-12-29T05:52:05.723Z,86.62
2018-12-29T05:54:35.536Z,86.52
2018-12-29T05:57:05.542Z,86.56
2018-12-29T05:59:35.250Z,86.51
2018-12-29T06:02:05.371Z,86.52
2018-12-29T06:04:35.740Z,86.68
2018-12-29T06:07:05.495Z,86.68
2018-12-29T06:09:35.522Z,86.64
2018-12-29T06:12:05.561Z,86.63
2018-12-29T06:14:35.283Z,86.57
2018-12-29T06:17:05.670Z,86.59
2018-12-29T06:19:35.381Z,86.62
2018-12-29T06:22:05.298Z,86.77
2018-12-29T06:24:35.135Z,86.74
2018-12-29T06:27:05.529Z,86.72
2018-12-29T06:29:35.567Z,86.75
2018-12-29T06:32:05.527Z,86.77
2018-12-29T06:34:35.588Z,86.88
2018-12-29T06:37:05.378Z,86.95
2018-12-29T06:39:35.092Z,86.93
2018-12-29T06:42:05.426Z,86.92
2018-12-29T06:44:35.146Z,86.93
2018-12-29T06:47:05.464Z,86.93
2018-12-29T06:49:37.148Z,86.94
2018-12-29T06:52:06.854Z,86.85
2018-12-29T06:54:36.591Z,86.78
2018-12-29T06:57:06.254Z,86.84
2018-12-29T06:59:35.952Z,86.88
2018-12-29T07:02:06.050Z,86.98
2018-12-29T07:04:35.742Z,87.03
2018-12-29T07:07:05.443Z,87.04
2018-12-29T07:09:35.215Z,87.00
2018-12-29T07:12:05.630Z,87.03
2018-12-29T07:14:35.339Z,87.02
2018-12-29T07:17:05.141Z,86.94
2018-12-29T07:19:34.829Z,86.98
2018-12-29T07:22:05.308Z,86.94
2018-12-29T07:24:35.010Z,86.92
2018-12-29T07:27:05.135Z,86.98
2018-12-29T07:29:38.170Z,86.98
2018-12-29T07:32:06.426Z,86.96
2018-12-29T07:34:36.137Z,87.03
2018-12-29T07:37:05.887Z,87.13
2018-12-29T07:39:35.616Z,87.12
2018-12-29T07:42:05.302Z,87.06
2018-12-29T07:44:35.713Z,87.20
2018-12-29T07:47:05.438Z,87.15
2018-12-29T07:49:35.126Z,87.13
2018-12-29T07:52:05.148Z,87.11
2018-12-29T07:54:34.844Z,87.14
2018-12-29T07:57:05.738Z,87.20
2018-12-29T07:59:35.433Z,87.15
2018-12-29T08:02:05.239Z,87.19
2018-12-29T08:04:34.924Z,87.33
2018-12-29T08:07:05.250Z,87.14
2018-12-29T08:09:34.952Z,87.13
2018-12-29T08:12:05.561Z,86.93
2018-12-29T08:14:35.308Z,86.73
2018-12-29T08:17:05.671Z,86.77
2018-12-29T08:19:35.572Z,86.72
2018-12-29T08:22:05.454Z,86.68
2018-12-29T08:24:35.155Z,86.62
2018-12-29T08:27:05.067Z,86.63
2018-12-29T08:29:34.797Z,86.68
2018-12-29T08:32:05.409Z,86.62
2018-12-29T08:34:35.089Z,86.63
2018-12-29T08:37:05.134Z,86.71
2018-12-29T08:39:34.832Z,86.90
2018-12-29T08:42:04.680Z,86.82
2018-12-29T08:44:34.376Z,86.86
2018-12-29T08:47:04.896Z,86.94
2018-12-29T08:49:34.901Z,86.86
2018-12-29T08:52:05.658Z,86.85
2018-12-29T08:54:35.359Z,86.98
2018-12-29T08:57:05.568Z,86.97
2018-12-29T08:59:35.287Z,86.91
2018-12-29T09:02:05.461Z,86.81
2018-12-29T09:04:35.145Z,86.81
2018-12-29T09:07:05.439Z,86.80
2018-12-29T09:09:35.987Z,86.80
2018-12-29T09:12:05.663Z,86.76
2018-12-29T09:14:35.346Z,86.91
2018-12-29T09:17:11.870Z,86.99
2018-12-29T09:19:36.880Z,87.17
2018-12-29T09:22:06.577Z,87.25
2018-12-29T09:24:36.281Z,87.32
2018-12-29T09:27:05.989Z,87.28
2018-12-29T09:29:35.688Z,87.23
2018-12-29T09:32:05.386Z,87.20
2018-12-29T09:34:35.390Z,87.31
2018-12-29T09:37:05.523Z,87.45
2018-12-29T09:39:35.216Z,87.27
2018-12-29T09:42:05.378Z,87.56
2018-12-29T09:44:35.074Z,87.73
2018-12-29T09:47:05.406Z,87.85
2018-12-29T09:49:35.489Z,88.00
2018-12-29T09:52:05.327Z,88.04
2018-12-29T09:54:35.017Z,88.11
2018-12-29T09:57:05.485Z,88.08
2018-12-29T09:59:35.178Z,88.08
2018-12-29T10:02:05.397Z,87.98
2018-12-29T10:04:35.095Z,88.03
2018-12-29T10:07:05.862Z,88.00
2018-12-29T10:09:35.553Z,87.94
2018-12-29T10:12:05.322Z,87.67
2018-12-29T10:14:35.054Z,87.65
2018-12-29T10:17:05.056Z,87.59
2018-12-29T10:19:34.757Z,87.50
2018-12-29T10:22:05.514Z,87.28
2018-12-29T10:24:35.236Z,86.98
2018-12-29T10:27:05.132Z,86.51
2018-12-29T10:29:34.853Z,86.52
2018-12-29T10:32:06.040Z,86.60
2018-12-29T10:34:35.728Z,86.49
2018-12-29T10:37:05.423Z,86.36
2018-12-29T10:39:35.181Z,86.08
2018-12-29T10:42:06.064Z,85.99
2018-12-29T10:44:36.131Z,86.02
2018-12-29T10:47:05.831Z,85.68
2018-12-29T10:49:35.529Z,85.71
2018-12-29T10:52:05.852Z,85.60
2018-12-29T10:54:35.674Z,85.65
2018-12-29T10:57:05.503Z,85.63
2018-12-29T10:59:35.189Z,85.29
2018-12-29T11:02:05.791Z,85.21
2018-12-29T11:04:35.498Z,85.10
2018-12-29T11:07:05.318Z,84.69
2018-12-29T11:09:34.993Z,84.53
2018-12-29T11:12:05.537Z,84.01
2018-12-29T11:14:35.414Z,84.21
2018-12-29T11:17:05.490Z,84.30
2018-12-29T11:19:36.422Z,84.32
2018-12-29T11:22:06.113Z,83.90
2018-12-29T11:24:37.447Z,83.90
2018-12-29T11:27:07.201Z,83.86
2018-12-29T11:29:36.892Z,83.69
2018-12-29T11:32:06.598Z,83.69
2018-12-29T11:34:36.269Z,83.61
2018-12-29T11:37:06.276Z,83.44
2018-12-29T11:39:35.976Z,83.19
2018-12-29T11:42:05.652Z,83.22
2018-12-29T11:44:35.343Z,83.37
2018-12-29T11:47:05.573Z,83.14
2018-12-29T11:49:35.546Z,83.08
2018-12-29T11:54:59.672Z,82.90
2018-12-29T11:57:29.354Z,82.49
2018-12-29T11:59:59.050Z,82.80
2018-12-29T12:02:29.006Z,82.64
2018-12-29T12:04:58.701Z,82.79
2018-12-29T12:07:28.369Z,82.84
2018-12-29T12:09:58.128Z,82.62
2018-12-29T12:12:27.816Z,82.91
2018-12-29T12:14:57.490Z,82.94
2018-12-29T12:17:27.174Z,82.45
2018-12-29T12:19:56.862Z,82.77
2018-12-29T12:22:26.560Z,82.97
2018-12-29T12:24:56.237Z,82.52
2018-12-29T12:27:25.924Z,82.76
2018-12-29T12:29:55.899Z,82.84
2018-12-29T12:32:25.594Z,82.90
2018-12-29T12:34:55.451Z,82.56
2018-12-29T12:37:25.394Z,82.71
2018-12-29T12:39:55.341Z,82.55
2018-12-29T12:42:25.481Z,82.63
2018-12-29T12:44:55.165Z,82.80
2018-12-29T12:47:24.850Z,83.12
2018-12-29T12:49:54.532Z,83.67
2018-12-29T12:52:24.508Z,84.10
2018-12-29T12:54:54.198Z,84.43
2018-12-29T12:57:24.143Z,84.92
2018-12-29T12:59:54.117Z,84.98
2018-12-29T13:02:23.980Z,85.42
2018-12-29T13:04:53.679Z,85.50
2018-12-29T13:07:23.385Z,85.75
2018-12-29T13:09:53.066Z,85.84
2018-12-29T13:12:22.749Z,85.87
2018-12-29T13:14:52.696Z,85.89
2018-12-29T13:17:22.363Z,85.89
2018-12-29T13:19:52.045Z,85.93
2018-12-29T13:22:21.979Z,86.01
2018-12-29T13:24:51.930Z,86.13
2018-12-29T13:27:21.864Z,86.08
2018-12-29T13:29:51.783Z,86.35
2018-12-29T13:32:21.466Z,86.36
2018-12-29T13:34:51.166Z,86.39
2018-12-29T13:37:21.127Z,86.50
2018-12-29T13:39:50.817Z,86.62
2018-12-29T13:42:20.518Z,86.88
2018-12-29T13:44:50.429Z,87.09
2018-12-29T13:47:20.119Z,87.06
2018-12-29T13:49:49.792Z,87.04
2018-12-29T13:52:19.472Z,87.25
2018-12-29T13:54:49.389Z,87.49
2018-12-29T13:57:19.081Z,87.45
2018-12-29T13:59:49.273Z,87.34
2018-12-29T14:02:18.949Z,87.39
2018-12-29T14:04:48.658Z,87.44
2018-12-29T14:07:18.583Z,87.60
2018-12-29T14:09:48.287Z,87.83
2018-12-29T14:12:18.205Z,87.83
2018-12-29T14:14:47.904Z,87.98
2018-12-29T14:17:17.589Z,87.74
2018-12-29T14:19:47.269Z,87.84
2018-12-29T14:22:17.238Z,87.84
2018-12-29T14:24:46.928Z,87.87
2018-12-29T14:27:16.631Z,87.89
2018-12-29T14:29:46.309Z,87.76
2018-12-29T14:32:16.244Z,87.92
2018-12-29T14:34:46.165Z,87.96
2018-12-29T14:37:15.872Z,88.01
2018-12-29T14:39:45.554Z,88.14
2018-12-29T14:42:15.494Z,88.27
2018-12-29T14:44:45.456Z,88.21
2018-12-29T14:47:15.365Z,88.21
2018-12-29T14:49:45.057Z,88.31
2018-12-29T14:52:14.762Z,88.25
2018-12-29T14:54:45.426Z,88.37
2018-12-29T14:57:15.370Z,88.39
2018-12-29T14:59:45.067Z,88.35
2018-12-29T15:02:14.746Z,88.32
2018-12-29T15:04:44.516Z,88.43
2018-12-29T15:07:14.487Z,88.46
2018-12-29T15:09:44.169Z,88.50
2018-12-29T15:12:13.849Z,88.49
2018-12-29T15:14:43.553Z,88.59
2018-12-29T15:17:13.332Z,88.52
2018-12-29T15:19:43.250Z,88.39
2018-12-29T15:22:12.926Z,88.63
2018-12-29T15:24:43.058Z,88.48
2018-12-29T15:27:13.001Z,88.41
2018-12-29T15:29:43.171Z,88.32
2018-12-29T15:32:13.141Z,88.39
2018-12-29T15:34:42.827Z,88.49
2018-12-29T15:37:12.501Z,88.53
2018-12-29T15:39:42.424Z,88.53
2018-12-29T15:42:12.121Z,88.50
2018-12-29T15:44:41.811Z,88.50
2018-12-29T15:47:11.497Z,88.62
2018-12-29T15:49:41.173Z,88.64
2018-12-29T15:52:11.092Z,88.35
2018-12-29T15:54:41.477Z,88.37
2018-12-29T15:57:11.161Z,88.40
2018-12-29T15:59:41.100Z,88.31
2018-12-29T16:02:10.794Z,88.16
2018-12-29T16:04:40.465Z,88.23
2018-12-29T16:07:10.137Z,88.26
2018-12-29T16:09:40.427Z,88.31
2018-12-29T16:12:10.129Z,88.25
2018-12-29T16:14:39.831Z,88.07
2018-12-29T16:17:09.514Z,87.82
2018-12-29T16:19:39.200Z,87.95
2018-12-29T16:22:09.137Z,88.07
2018-12-29T16:24:38.807Z,88.21
2018-12-29T16:27:08.818Z,88.21
2018-12-29T16:29:38.493Z,88.11
2018-12-29T16:32:08.182Z,88.08
2018-12-29T16:34:37.886Z,88.08
2018-12-29T16:37:07.578Z,88.21
2018-12-29T16:39:37.536Z,88.31
2018-12-29T16:42:07.239Z,88.17
2018-12-29T16:44:36.927Z,88.21
2018-12-29T16:47:06.616Z,88.23
2018-12-29T16:49:36.647Z,88.32
2018-12-29T16:52:06.339Z,88.41
2018-12-29T16:54:36.027Z,88.49
2018-12-29T16:57:05.712Z,88.47
2018-12-29T16:59:35.792Z,88.42
2018-12-29T17:02:05.490Z,88.46
2018-12-29T17:04:35.181Z,88.53
2018-12-29T17:07:05.362Z,88.52
2018-12-29T17:09:35.053Z,88.47
2018-12-29T17:12:05.156Z,88.48
2018-12-29T17:14:34.890Z,88.65
2018-12-29T17:17:05.169Z,88.73
2018-12-29T17:19:35.130Z,88.66
2018-12-29T17:22:05.594Z,88.61
2018-12-29T17:24:35.281Z,88.62
2018-12-29T17:27:05.374Z,88.52
2018-12-29T17:29:35.052Z,88.58
2018-12-29T17:32:05.444Z,88.48
2018-12-29T17:34:35.144Z,88.47
2018-12-29T17:37:04.908Z,88.52
2018-12-29T17:39:34.992Z,88.47
2018-12-29T17:42:05.524Z,88.45
2018-12-29T17:44:35.456Z,88.42
2018-12-29T17:47:06.002Z,88.55
2018-12-29T17:49:35.689Z,88.49
2018-12-29T17:52:05.653Z,88.53
2018-12-29T17:54:35.605Z,88.42
2018-12-29T17:57:05.603Z,88.51
2018-12-29T17:59:35.297Z,88.49
2018-12-29T18:02:05.667Z,88.41
2018-12-29T18:04:35.525Z,88.36
2018-12-29T18:07:06.447Z,88.33
2018-12-29T18:09:36.141Z,88.31
2018-12-29T18:12:05.824Z,88.27
2018-12-29T18:14:35.529Z,88.22
2018-12-29T18:17:17.589Z,88.23
2018-12-29T18:19:47.295Z,88.20
2018-12-29T18:22:16.976Z,88.09
2018-12-29T18:24:46.738Z,87.93
2018-12-29T18:27:18.166Z,87.74
2018-12-29T18:29:48.003Z,87.62
2018-12-29T18:32:17.707Z,87.34
2018-12-29T18:34:48.161Z,87.04
2018-12-29T18:37:18.109Z,86.76
2018-12-29T18:39:47.804Z,86.38
2018-12-29T18:42:17.718Z,86.28
2018-12-29T18:44:47.405Z,86.32
2018-12-29T18:47:17.091Z,85.85
2018-12-29T18:49:47.754Z,85.78
2018-12-29T18:52:17.435Z,85.23
2018-12-29T18:54:47.387Z,85.04
2018-12-29T18:57:17.085Z,83.90
2018-12-29T18:59:46.769Z,83.26
2018-12-29T19:02:16.463Z,82.78
2018-12-29T19:04:46.218Z,81.65
2018-12-29T19:07:16.142Z,81.62
2018-12-29T19:09:45.993Z,79.80
2018-12-29T19:12:15.961Z,78.97
2018-12-29T19:14:45.656Z,78.61
2018-12-29T19:17:15.374Z,79.29
2018-12-29T19:19:46.472Z,78.79
2018-12-29T19:22:16.388Z,77.02
2018-12-29T19:24:46.078Z,76.64
2018-12-29T19:27:15.760Z,77.00
2018-12-29T19:29:45.730Z,76.42
2018-12-29T19:32:32.787Z,76.43
2018-12-29T19:35:03.070Z,75.01
2018-12-29T19:37:34.096Z,75.02
2018-12-29T19:40:04.067Z,74.72
2018-12-29T19:42:34.028Z,75.70
2018-12-29T19:45:03.780Z,75.56
2018-12-29T19:47:33.452Z,75.30
2018-12-29T19:50:03.421Z,76.22
2018-12-29T19:52:33.094Z,77.04
2018-12-29T19:55:02.777Z,77.75
2018-12-29T19:57:32.443Z,78.39
2018-12-29T20:00:02.773Z,79.06
2018-12-29T20:02:34.997Z,79.16
2018-12-29T20:05:05.240Z,79.83
2018-12-29T20:07:34.943Z,80.28
2018-12-29T20:10:06.001Z,80.71
2018-12-29T20:12:35.694Z,80.73
2018-12-29T20:15:06.579Z,79.80
2018-12-29T20:17:36.521Z,80.20
2018-12-29T20:20:06.427Z,79.09
2018-12-29T20:22:36.640Z,79.09
2018-12-29T20:25:07.213Z,78.91
2018-12-29T20:27:36.895Z,78.74
2018-12-29T20:30:07.818Z,78.45
2018-12-29T20:32:37.496Z,78.45
2018-12-29T20:35:07.245Z,78.37
2018-12-29T20:37:36.922Z,77.26
2018-12-29T20:40:06.710Z,77.21
2018-12-29T20:42:36.397Z,77.93
2018-12-29T20:45:06.387Z,77.53
2018-12-29T20:47:36.072Z,77.82
2018-12-29T20:50:09.584Z,77.55
2018-12-29T20:52:38.733Z,76.77
2018-12-29T20:55:08.487Z,76.54
2018-12-29T20:57:38.511Z,76.29
2018-12-29T21:00:09.851Z,75.99
2018-12-29T21:02:39.577Z,75.75
2018-12-29T21:05:09.532Z,75.61
2018-12-29T21:07:39.212Z,75.78
2018-12-29T21:10:08.927Z,75.89
2018-12-29T21:12:38.867Z,76.00
2018-12-29T21:15:08.702Z,76.25
2018-12-29T21:17:38.399Z,76.10
2018-12-29T21:20:08.167Z,75.87
2018-12-29T21:22:37.847Z,75.64
2018-12-29T21:25:07.516Z,75.70
2018-12-29T21:27:37.192Z,75.69
2018-12-29T21:30:07.178Z,75.31
2018-12-29T21:32:36.872Z,75.01
2018-12-29T21:35:06.788Z,74.96
2018-12-29T21:37:36.460Z,74.87
2018-12-29T21:40:07.117Z,75.30
2018-12-29T21:42:36.800Z,75.30
2018-12-29T21:45:06.790Z,74.57
2018-12-29T21:47:36.530Z,74.81
2018-12-29T21:50:07.144Z,74.47
2018-12-29T21:52:36.849Z,74.58
2018-12-29T21:55:06.635Z,74.15
2018-12-29T21:57:36.383Z,74.48
2018-12-29T22:00:07.471Z,74.56
2018-12-29T22:02:37.288Z,74.55
2018-12-29T22:05:07.048Z,74.44
2018-12-29T22:07:36.727Z,74.16
2018-12-29T22:10:06.886Z,74.61
2018-12-29T22:12:36.564Z,74.40
2018-12-29T22:15:08.274Z,74.78
2018-12-29T22:17:38.038Z,74.76
2018-12-29T22:20:08.148Z,75.09
2018-12-29T22:22:37.837Z,75.40
2018-12-29T22:25:07.606Z,74.79
2018-12-29T22:27:38.495Z,74.08
2018-12-29T22:30:08.350Z,75.08
2018-12-29T22:32:38.054Z,74.69
2018-12-29T22:35:07.796Z,74.59
2018-12-29T22:37:37.607Z,74.83
2018-12-29T22:40:07.442Z,74.75
2018-12-29T22:42:37.135Z,74.86
2018-12-29T22:45:07.202Z,74.81
2018-12-29T22:47:36.900Z,74.70
2018-12-29T22:50:07.492Z,75.21
2018-12-29T22:52:37.171Z,74.62
2018-12-29T22:55:07.045Z,74.69
2018-12-29T22:57:37.390Z,74.47
2018-12-29T23:00:12.580Z,74.43
2018-12-29T23:02:43.140Z,74.51
2018-12-29T23:05:13.072Z,74.58
2018-12-29T23:07:43.013Z,74.33
2018-12-29T23:10:12.787Z,74.57
2018-12-29T23:12:42.456Z,74.48
2018-12-29T23:15:12.572Z,74.37
2018-12-29T23:17:42.256Z,74.62
2018-12-29T23:20:11.928Z,74.03
2018-12-29T23:22:41.604Z,73.99
2018-12-29T23:25:11.287Z,73.57
2018-12-29T23:27:41.241Z,73.72
2018-12-29T23:30:10.929Z,74.01
2018-12-29T23:32:40.976Z,74.12
2018-12-29T23:35:10.650Z,74.46
2018-12-29T23:37:40.329Z,74.73
2018-12-29T23:40:10.252Z,74.58
2018-12-29T23:42:40.186Z,74.72
2018-12-29T23:45:09.867Z,74.40
2018-12-29T23:47:39.829Z,73.29
2018-12-29T23:50:09.517Z,73.20
2018-12-29T23:52:39.584Z,72.67
2018-12-29T23:55:09.265Z,72.32
2018-12-29T23:57:39.026Z,72.91
